Terminal Aerodrome Forecast
Issued by NWS Quad Cities IA IL

Home | Current Version | Previous Version | Text Only | Print | Product List | Glossary On
Versions: 1 2 3 4 5 6 7 8 9 10 11 12 13 14 15 16 17 18 19 20 21 22 23
000
FTUS43 KDVN 271458 AAB
TAFMLI
TAF AMD
KMLI 271458Z 2715/2812 31012G18KT P6SM BKN025 BKN035
     FM271700 29011KT P6SM SCT040
     FM272300 23005KT P6SM FEW050
     FM280300 17003KT P6SM SKC=

USA.gov is the U.S. government's official web portal to all federal, state and local government web resources and services.